Mark Scott

Recruteur en chef - Luton Town
30 Sept 2027
Jeudi
Processus

Personnalité

Adaptabilité (4) Ambition (16) Controverse (11) Loyauté (5) Pression (7) Professionnalisme (10) Sportivité (6) Tempérament (3)

Profil

Style d'entraînement Démocratique
Diplôme Continental Pro
Détermination 4
Gestion des joueurs 6
Motivation 12
Discipline 8
Satisfaction professionnelle
28%
Fatigue
0%
Rôle Recruteur en chef
Salaire 14.3K p/s
Contrat 14.03.2028

Performance

Comportement Bon
Efficacité de l'entraînement
11%
Développement des joueurs
60%
Prévention des blessures
35%
Mise en place tactique
35%

Événements récents

A évalué un joueur maintenant
A participé à une réunion de recrutement maintenant
A recommandé une cible de transfert maintenant
A recommandé une cible de transfert maintenant
A recommandé une cible de transfert maintenant
A recommandé une cible de transfert maintenant
A évalué un joueur 7j
A évalué un joueur 7j

Suivi en cours

187
Joueur Club Statut Capacité Confiance Observé Dernière observation Dernier vote
Chinedu Nwosu Bendel Insurance Actif 88 / 100 40% 2 29.09.2027 -
Lucas Camejo River Plate Actif 91 / 100 40% 2 29.09.2027 -
Fredrik Ardraa Stromsgodset Actif 112 / 116 40% 2 27.09.2027 -
Samuel Posada Leones Actif 85 / 87 40% 1 27.09.2027 -
Kevin Angulo America de Cali Actif 107 / 106 40% 1 27.09.2027 -
Jofrank Istifanus Nasarawa United Actif 86 / 87 40% 3 23.09.2027 -
Emmanuel Chacón Zulia Actif 82 / 94 40% 1 23.09.2027 -
Honest Ahanor Atalanta Actif 131 / 146 40% 1 23.09.2027 -
Joaquín Muñoz O'Higgins Actif 79 / 87 40% 1 21.09.2027 -
Luighi Palmeiras Actif 109 / 108 40% 1 21.09.2027 -
Tomás Aranda Boca Juniors Actif 112 / 121 40% 2 20.09.2027 -
Juan Rodríguez Wanderers Actif 96 / 95 40% 1 20.09.2027 -
Luis Vidal Deportivo Pereira Actif 78 / 81 40% 2 19.09.2027 -
Daniel Ferraresi Llaneros Actif 84 / 93 40% 1 19.09.2027 -
Ramiro Jara Racing Actif 79 / 91 40% 1 19.09.2027 -
Hassan Beja AFC Leopards Actif 87 / 77 40% 3 17.09.2027 -
Joel Ezra Enyimba Actif 86 / 106 40% 3 17.09.2027 -
Dylan Cabral Arsenal Actif 91 / 95 40% 1 17.09.2027 -
Emiliano Zambrano Gimnasia y Esgrima Actif 93 / 105 40% 2 16.09.2027 -
Santiago López Independiente Actif 118 / 127 40% 1 16.09.2027 -
Aiden Hezarkhani Real Salt Lake Actif 93 / 94 40% 1 16.09.2027 -
Harbor Miller LA Galaxy Actif 101 / 97 40% 2 15.09.2027 -
Josh King Chelsea Actif 150 / 142 40% 1 15.09.2027 -
Tiziano Cabrera Central Norte Actif 97 / 100 40% 1 15.09.2027 -
Noah Streit CF Montreal Actif 112 / 125 40% 1 14.09.2027 -
Cooper Sanchez Atlanta United FC Actif 95 / 96 40% 1 14.09.2027 -
Jhon Renteria Sarmiento Actif 103 / 129 40% 1 13.09.2027 -
Dilan Godoy Vélez Actif 101 / 127 40% 2 12.09.2027 -
Facundo Martínez Montevideo City Torque Actif 83 / 96 40% 1 12.09.2027 -
Chimobi Igwilo Rangers International Actif 81 / 91 40% 1 09.09.2027 -
Hervin Goyes Deportivo Pasto Actif 113 / 117 40% 1 09.09.2027 -
Juan Román Gimenez Estudiantes Actif 107 / 113 40% 1 08.09.2027 -
Joseph Abah Remo Stars Actif 80 / 98 40% 1 07.09.2027 -
Matías Canedo Rampla Juniors Actif 92 / 85 40% 1 07.09.2027 -
Francisco Rincon Llaneros Actif 106 / 109 40% 1 31.08.2027 -
Giovanni Baroni Talleres Actif 100 / 127 40% 1 31.08.2027 -
Matías Gómez Granada Actif 112 / 127 40% 4 28.06.2027 -
Jan Bürger Gillingham Actif 114 / 117 40% 2 28.06.2027 -
Caleb Yirenkyi Coventry City Actif 143 / 141 40% 2 28.06.2027 -
Percy Jali Free State Stars Actif 92 / 107 40% 4 02.06.2027 -
Joseph Nuhu Hasaacas Actif 90 / 81 40% 2 02.06.2027 -
Dion Beljo Standard Liege Négociation 131 / 132 66% 1 01.06.2027 Approuver
Sascha Britschgi Padova Actif 115 / 121 40% 3 30.05.2027 -
Joel McGregor Swindon Town Actif 92 / 95 40% 3 30.05.2027 -
Davide Bartesaghi AC Milan Actif 129 / 135 40% 4 30.05.2027 -
Riley Owen Trento Actif 103 / 102 40% 5 28.05.2027 -
Finley McAllister Grimsby Town Actif 89 / 104 40% 1 28.05.2027 -
Fuzy Taylor Medeama Actif 82 / 89 40% 2 26.05.2027 -
Mpho Khethang AS Police Actif 80 / 82 40% 4 26.05.2027 -
David Atiemo Liberty Professionals Actif 86 / 86 40% 4 25.05.2027 -
Juan Giménez Celta Actif 116 / 131 40% 2 25.05.2027 -
Jofre Torrents Ajax Actif 121 / 133 40% 4 24.05.2027 -
Christos Mouzakitis Hull City Actif 136 / 132 40% 7 24.05.2027 -
Daniel Kelly Oxford United Actif 114 / 128 40% 2 24.05.2027 -
Dylan Lawlor Cardiff City Actif 118 / 112 40% 3 22.05.2027 -
Olaniyi Saheed Kwara United Actif 84 / 87 40% 1 22.05.2027 -
Yussif Saidu Zaragoza Actif 121 / 129 40% 2 21.05.2027 -
Johan Manzambi Newcastle United Actif 142 / 150 40% 1 17.05.2027 -
Keagan Tau Ajax Cape Town Actif 104 / 105 40% 4 15.05.2027 -
Edwin Asamoah Berekum Chelsea Actif 75 / 97 40% 3 14.05.2027 -
Christ Inao Oulaï Fiorentina Actif 138 / 138 40% 3 13.05.2027 -
Josh Smith Accrington Stanley Actif 75 / 83 40% 1 10.05.2027 -
Leandro Martins Benfica Actif 92 / 90 40% 2 09.05.2027 -
Felix Afful Liberty Professionals Actif 86 / 85 40% 2 08.05.2027 -
Kazunari Kita Real Sociedad Actif 91 / 98 40% 3 06.05.2027 -
Martim Cunha Porto Actif 98 / 104 40% 2 02.05.2027 -
Tiago Freitas Benfica Actif 103 / 108 40% 1 02.05.2027 -
Ernie Weaver AFC Wimbledon Actif 103 / 113 40% 1 26.04.2027 -
David Ozoh Derby County Actif 113 / 135 40% 1 26.04.2027 -
Hlompho Lorch Ajax Cape Town Actif 107 / 113 40% 2 22.04.2027 -
Zane Albarus Cambridge United Actif 88 / 96 40% 1 20.04.2027 -
Surprise Manthosi Polokwane City Actif 103 / 102 40% 1 20.04.2027 -
Cathal Heffernan Harrogate Town Actif 81 / 84 40% 2 19.04.2027 -
Daniel Costa Sporting CP Actif 95 / 102 40% 1 18.04.2027 -
Bernardo Lima Porto Actif 101 / 107 40% 1 12.04.2027 -
Rivaldo Grobler Free State Stars Actif 100 / 118 40% 1 12.04.2027 -
Pietro Reggiori Pro Patria Actif 88 / 100 40% 1 11.04.2027 -
Ronwen Phiri Platinum Stars Actif 99 / 97 40% 1 10.04.2027 -
Gopolang Taunyane CR Belouizdad Actif 103 / 93 40% 1 09.04.2027 -
Tyler Fredricson Oldham Athletic Actif 102 / 110 40% 1 18.01.2027 -
Mbekezeli Mbokazi Chicago Fire Actif 121 / 119 40% 2 01.01.2027 -
Amar Memić Casa Pia Négociation 127 / 128 62% 1 01.01.2027 Approuver
Andreas Trimmel Red Bull Salzburg Actif 131 / 131 60% 1 01.01.2027 Approuver
Jefry Zapata Danubio Négociation 118 / 118 67% 1 01.01.2027 Approuver
Themba Ngcobo SuperSport United Actif 118 / 111 40% 5 31.12.2026 -
Morgan Whittaker Middlesbrough Actif 138 / 128 40% 2 31.12.2026 -
Robert Mizo Ashanti Gold Actif 100 / 116 40% 1 31.12.2026 -
Sorba Thomas Stoke City Actif 138 / 140 40% 2 30.12.2026 -
Romano Schmid Frosinone Actif 151 / 143 40% 1 30.12.2026 -
Giorgi Chakvetadze Watford Actif 125 / 122 40% 1 30.12.2026 -
Etiosa Ighodaro Kaizer Chiefs Actif 108 / 123 40% 2 27.12.2026 -
Mohamed-Ali Cho Hull City Actif 124 / 126 40% 2 26.12.2026 -
Yousef Salech Cardiff City Actif 120 / 118 40% 2 25.12.2026 -
Richard Koné Queens Park Rangers Actif 124 / 113 40% 2 25.12.2026 -
Georginio Rutter Brighton Actif 149 / 147 40% 4 24.12.2026 -
Matt O'Riley Brighton Actif 146 / 136 40% 3 24.12.2026 -
Mathias Jørgensen Blackburn Rovers Actif 119 / 125 40% 1 24.12.2026 -
Ali Ahmed Norwich City Actif 120 / 119 40% 1 23.12.2026 -
Will Lankshear Middlesbrough Actif 126 / 134 40% 2 21.12.2026 -
Bongani Mothiba SuperSport United Actif 84 / 74 40% 3 21.12.2026 -
Derensili Sanches Fernandes Huddersfield Town Actif 126 / 123 40% 4 21.12.2026 -
Niall Ennis Blackpool Actif 114 / 116 40% 1 21.12.2026 -
Tyreece Simpson Maritzburg United Actif 75 / 88 40% 2 19.12.2026 -
Brayan León Mamelodi Sundowns Actif 125 / 120 40% 3 19.12.2026 -
Tadeo Allende Inter Miami CF Actif 119 / 116 40% 4 16.12.2026 -
Mandla Mahlangu Ajax Cape Town Actif 107 / 105 40% 3 16.12.2026 -
Bamba Dieng Crvena Zvezda Actif 124 / 130 40% 1 16.12.2026 -
Bryan Ramírez FC Cincinnati Actif 124 / 133 40% 1 15.12.2026 -
Williams Manyama SuperSport United Actif 113 / 113 40% 1 15.12.2026 -
Mohammed Yahaya Great Olympics Actif 75 / 98 40% 1 15.12.2026 -
Kévin Denkey FC Cincinnati Actif 133 / 121 40% 4 13.12.2026 -
Razvan Balasa Crvena Zvezda Actif 144 / 142 40% 3 13.12.2026 -
Ruben van Bommel Ferencvaros Actif 136 / 140 40% 2 13.12.2026 -
Tom Fellows Southampton Actif 123 / 124 40% 3 11.12.2026 -
Kelvin Yeboah Minnesota United FC Actif 126 / 130 40% 4 11.12.2026 -
Carlos Vicente Birmingham Actif 140 / 133 40% 2 11.12.2026 -
Marezi Portsmouth Actif 115 / 114 40% 1 11.12.2026 -
Nathan Ordaz Metalist Actif 102 / 121 40% 1 11.12.2026 -
Kwadwo Baah Watford Actif 121 / 126 40% 1 10.12.2026 -
Shea Charles Southampton Actif 139 / 124 40% 1 09.12.2026 -
Kenan Dervišagić Floriana Actif 106 / 91 40% 2 07.12.2026 -
Bénie Traoré New York City Actif 124 / 128 40% 3 03.12.2026 -
Dean Erasmus Platinum Stars Actif 101 / 79 40% 1 03.12.2026 -
Theo Corbeanu Toronto FC Actif 129 / 115 40% 2 02.12.2026 -
Armindo Sieb Los Angeles Football Club Actif 123 / 131 40% 2 02.12.2026 -
Tshepang Moremi Orlando Pirates Actif 115 / 103 40% 2 02.12.2026 -
Sibusiso Tshabalala Polokwane City Actif 83 / 94 40% 1 28.11.2026 -
Rafael Navarro St. Louis CITY SC Actif 131 / 131 40% 8 27.11.2026 -
Alexander Aravena Portland Timbers Actif 129 / 133 40% 3 27.11.2026 -
Lorent Tolaj Plymouth Argyle Actif 114 / 119 40% 1 26.11.2026 -
Joshua Zirkzee Manchester United Actif 138 / 134 40% 1 25.11.2026 -
Wessam Abou Ali Columbus Crew Actif 124 / 135 40% 1 25.11.2026 -
Tomás Chancalay Minnesota United FC Actif 121 / 133 40% 3 24.11.2026 -
Jack Rudoni Coventry City Actif 130 / 135 40% 1 24.11.2026 -
Tyrese Campbell Sheffield United Actif 120 / 118 40% 3 23.11.2026 -
Ilyas Ansah Hull City Actif 135 / 122 40% 1 22.11.2026 -
Diego Luna Real Salt Lake Actif 130 / 131 40% 2 21.11.2026 -
Josh Sargent Toronto FC Actif 136 / 131 40% 1 17.11.2026 -
Bongani Modiba Black Aces Actif 130 / 137 40% 1 16.11.2026 -
Álvaro Rodríguez Bournemouth Actif 134 / 134 40% 1 16.11.2026 -
Conrad Wallem Austria Wien Actif 135 / 135 40% 1 13.11.2026 -
Welington Southampton Actif 123 / 128 40% 1 13.11.2026 -
Santiago Rodríguez Columbus Crew Actif 120 / 119 40% 1 13.11.2026 -
Agustín Anello Philadelphia Union Actif 122 / 133 40% 4 11.11.2026 -
Dejan Joveljić Seattle Sounders Actif 134 / 119 40% 4 11.11.2026 -
Othmane Maamma Watford Actif 132 / 122 40% 1 11.11.2026 -
Juan Manuel Sanabria Real Salt Lake Actif 128 / 130 40% 2 09.11.2026 -
Luis Vázquez Birmingham Actif 127 / 128 40% 1 07.11.2026 -
Evidence Makgopa Orlando Pirates Actif 113 / 120 40% 1 03.11.2026 -
Tommy Conway Middlesbrough Actif 122 / 137 40% 1 03.11.2026 -
Cheikh Sabaly Vancouver Whitecaps Actif 127 / 119 40% 3 02.11.2026 -
Victor Olatunji Real Salt Lake Actif 116 / 118 40% 1 02.11.2026 -
Martín Ojeda Orlando City Actif 142 / 129 40% 4 01.11.2026 -
Joe Gelhardt Hull City Actif 126 / 129 40% 2 01.11.2026 -
Antonio Galeano Remo Stars Actif 112 / 139 40% 2 01.11.2026 -
Yeangel Montero Naxxar Lions Actif 103 / 106 40% 1 31.10.2026 -
Jeong Sang-Bin St. Louis CITY SC Actif 112 / 121 40% 2 30.10.2026 -
Louis Munteanu DC United Actif 119 / 118 40% 1 30.10.2026 -
Indiana Vassilev Philadelphia Union Actif 118 / 122 40% 3 26.10.2026 -
Scott Twine Bristol City Actif 115 / 115 40% 1 26.10.2026 -
Facundo Mura Inter Miami CF Actif 132 / 131 40% 1 26.10.2026 -
Adnan Courtois KV Oostende Actif 141 / 136 40% 3 24.10.2026 -
Leonardo Campana New England Revolution Actif 128 / 125 40% 2 23.10.2026 -
Andrés Herrera Columbus Crew Actif 129 / 114 40% 1 21.10.2026 -
Quinn Sullivan Philadelphia Union Actif 121 / 127 40% 1 21.10.2026 -
Archie Goodwin Charlotte Football Club Actif 108 / 114 40% 2 17.10.2026 -
Dávid Strelec Middlesbrough Actif 144 / 139 40% 1 16.10.2026 -
Kevin Kelsy Portland Timbers Actif 114 / 124 40% 2 15.10.2026 -
Cameron Archer Southampton Actif 120 / 131 40% 1 12.10.2026 -
Yannick Bright Inter Miami CF Actif 121 / 127 40% 1 09.10.2026 -
Joseph Rosales Austin FC Actif 116 / 108 40% 1 09.10.2026 -
Riqui Puig LA Galaxy Actif 136 / 141 40% 1 09.10.2026 -
Ayoub Jabbari FC Cincinnati Actif 115 / 114 40% 1 08.10.2026 -
Alhassan Yusuf New England Revolution Actif 129 / 123 40% 1 15.09.2026 -
Jahkeele Marshall-Rutty New York Red Bulls Actif 114 / 121 40% 1 15.09.2026 -
Gabriel Pirani San Diego Football Club Actif 139 / 122 40% 1 14.09.2026 -
Rui Modesto Vancouver Whitecaps Actif 130 / 123 40% 1 14.09.2026 -
Lucas Sanabria LA Galaxy Actif 124 / 135 40% 1 12.09.2026 -
Patrick Yazbek Nashville SC Actif 128 / 116 40% 1 08.09.2026 -
Iván Angulo Orlando City Actif 122 / 125 40% 1 08.09.2026 -
Marco Pašalić Orlando City Actif 135 / 123 40% 1 08.09.2026 -
Pablo Ruiz Real Salt Lake Actif 120 / 120 40% 1 07.09.2026 -
Edvard Tagseth Nashville SC Actif 109 / 111 40% 1 07.09.2026 -
Mamadou Jobe Cambridge United Actif 93 / 96 65% 1 10.08.2026 Approuver
Jack Hinshelwood Brighton Actif 137 / 154 40% 1 03.08.2026 -
Brooklyn Raines New England Revolution Actif 101 / 108 40% 1 03.08.2026 -
Jack Neeley Charlotte Football Club Actif 84 / 106 40% 1 01.08.2026 -